createdAt,value
2023-01-29T00:00:10.601Z,6.22
2023-01-29T00:02:39.996Z,6.55
2023-01-29T00:05:26.005Z,6.70
2023-01-29T00:07:55.097Z,7.10
2023-01-29T00:10:21.991Z,7.90
2023-01-29T00:12:48.765Z,6.88
2023-01-29T00:15:15.524Z,7.10
2023-01-29T00:17:42.433Z,6.45
2023-01-29T00:20:09.843Z,7.00
2023-01-29T00:22:36.849Z,6.57
2023-01-29T00:25:03.780Z,6.40
2023-01-29T00:27:30.588Z,6.85
2023-01-29T00:30:09.443Z,6.47
2023-01-29T00:32:36.458Z,6.30
2023-01-29T00:35:03.780Z,6.75
2023-01-29T00:37:30.972Z,10.60
2023-01-29T00:39:57.844Z,14.80
2023-01-29T00:42:43.711Z,12.77
2023-01-29T00:45:12.133Z,12.25
2023-01-29T00:47:38.876Z,10.00
2023-01-29T00:50:10.817Z,10.05
2023-01-29T00:52:38.541Z,7.85
2023-01-29T00:55:06.484Z,6.88
2023-01-29T00:57:35.617Z,7.10
2023-01-29T01:00:04.340Z,6.07
2023-01-29T01:02:49.459Z,6.07
2023-01-29T01:05:18.374Z,6.93
2023-01-29T01:07:53.330Z,7.03
2023-01-29T01:10:32.358Z,5.40
2023-01-29T01:13:05.187Z,5.53
2023-01-29T01:15:35.256Z,5.18
2023-01-29T01:18:04.474Z,5.60
2023-01-29T01:20:34.394Z,4.80
2023-01-29T01:23:01.183Z,5.28
2023-01-29T01:25:28.116Z,5.18
2023-01-29T01:27:57.177Z,5.28
2023-01-29T01:30:25.194Z,5.45
2023-01-29T01:32:52.655Z,5.10
2023-01-29T01:35:19.560Z,5.38
2023-01-29T01:37:46.435Z,5.00
2023-01-29T01:40:19.746Z,4.68
2023-01-29T01:42:50.816Z,4.20
2023-01-29T01:45:35.665Z,5.03
2023-01-29T01:48:25.063Z,6.25
2023-01-29T01:51:01.548Z,6.65
2023-01-29T01:53:38.594Z,6.80
2023-01-29T01:56:09.438Z,5.53
2023-01-29T01:58:47.891Z,5.10
2023-01-29T02:01:15.361Z,5.88
2023-01-29T02:04:12.369Z,6.18
2023-01-29T02:06:59.461Z,5.57
2023-01-29T02:09:38.940Z,6.45
2023-01-29T02:12:11.182Z,7.32
2023-01-29T02:14:40.469Z,6.57
2023-01-29T02:17:09.884Z,7.00
2023-01-29T02:19:58.524Z,6.43
2023-01-29T02:22:56.375Z,7.00
2023-01-29T02:25:47.181Z,7.38
2023-01-29T02:28:28.087Z,7.47
2023-01-29T02:31:19.358Z,8.38
2023-01-29T02:33:59.723Z,7.10
2023-01-29T02:36:40.999Z,8.43
2023-01-29T02:39:32.539Z,8.07
2023-01-29T02:42:20.391Z,7.55
2023-01-29T02:45:04.382Z,7.20
2023-01-29T02:50:13.122Z,7.35
2023-01-29T02:58:17.467Z,7.20
2023-01-29T03:00:46.965Z,7.78
2023-01-29T03:03:19.607Z,7.47
2023-01-29T03:05:58.880Z,7.80
2023-01-29T03:08:43.330Z,7.30
2023-01-29T03:11:15.585Z,7.97
2023-01-29T03:13:55.912Z,6.45
2023-01-29T03:16:28.164Z,7.43
2023-01-29T03:19:04.750Z,6.00
2023-01-29T03:21:55.230Z,6.75
2023-01-29T03:24:58.455Z,6.80
2023-01-29T03:27:50.353Z,7.32
2023-01-29T03:30:37.751Z,8.07
2023-01-29T03:33:26.472Z,6.75
2023-01-29T03:36:00.913Z,7.22
2023-01-29T03:38:29.793Z,8.48
2023-01-29T03:41:06.606Z,8.45
2023-01-29T03:43:33.495Z,8.60
2023-01-29T03:46:08.447Z,7.00
2023-01-29T03:48:57.173Z,7.55
2023-01-29T03:51:23.893Z,6.95
2023-01-29T03:54:09.883Z,7.15
2023-01-29T03:56:37.608Z,6.80
2023-01-29T03:59:28.499Z,7.05
2023-01-29T04:02:22.034Z,6.80
2023-01-29T04:04:52.006Z,7.30
2023-01-29T04:07:24.659Z,6.68
2023-01-29T04:10:06.063Z,7.30
2023-01-29T04:12:40.361Z,7.38
2023-01-29T04:15:11.213Z,5.90
2023-01-29T04:17:42.884Z,5.97
2023-01-29T04:20:16.844Z,7.15
2023-01-29T04:22:51.954Z,7.70
2023-01-29T04:25:32.362Z,7.43
2023-01-29T04:28:17.801Z,7.63
2023-01-29T04:31:02.979Z,7.00
2023-01-29T04:33:49.076Z,7.00
2023-01-29T04:36:28.206Z,7.97
2023-01-29T04:39:06.047Z,8.02
2023-01-29T04:42:09.736Z,7.80
2023-01-29T04:44:49.868Z,6.97
2023-01-29T04:47:38.309Z,7.35
2023-01-29T04:50:33.898Z,5.85
2023-01-29T04:53:05.673Z,6.47
2023-01-29T04:55:51.536Z,6.50
2023-01-29T04:58:42.052Z,5.55
2023-01-29T05:01:13.465Z,5.72
2023-01-29T05:03:44.804Z,5.78
2023-01-29T05:06:12.662Z,5.50
2023-01-29T05:08:41.232Z,5.20
2023-01-29T05:11:08.363Z,5.95
2023-01-29T05:13:39.566Z,5.35
2023-01-29T05:16:28.285Z,5.47
2023-01-29T05:18:55.485Z,5.57
2023-01-29T05:21:23.404Z,5.45
2023-01-29T05:24:16.210Z,4.80
2023-01-29T05:27:05.167Z,5.07
2023-01-29T05:29:31.981Z,4.88
2023-01-29T05:31:58.904Z,4.65
2023-01-29T05:34:26.119Z,3.40
2023-01-29T05:36:53.114Z,3.95
2023-01-29T05:39:19.982Z,4.25
2023-01-29T05:41:46.792Z,4.43
2023-01-29T05:44:13.792Z,3.70
2023-01-29T05:46:40.610Z,4.43
2023-01-29T05:49:07.451Z,4.97
2023-01-29T05:51:34.198Z,4.97
2023-01-29T05:54:01.252Z,4.60
2023-01-29T05:56:28.023Z,4.93
2023-01-29T05:58:55.956Z,5.22
2023-01-29T06:01:26.179Z,4.78
2023-01-29T06:03:52.985Z,4.18
2023-01-29T06:06:19.765Z,5.22
2023-01-29T06:08:46.889Z,4.07
2023-01-29T06:11:15.187Z,4.97
2023-01-29T06:13:42.282Z,4.53
2023-01-29T06:16:10.188Z,3.88
2023-01-29T06:18:37.669Z,4.30
2023-01-29T06:21:06.559Z,4.10
2023-01-29T06:23:33.401Z,4.32
2023-01-29T06:26:05.457Z,4.53
2023-01-29T06:28:32.376Z,4.90
2023-01-29T06:31:12.008Z,4.28
2023-01-29T06:33:49.986Z,5.05
2023-01-29T06:36:16.695Z,4.32
2023-01-29T06:38:43.369Z,5.13
2023-01-29T06:41:12.097Z,4.88
2023-01-29T06:43:39.446Z,5.03
2023-01-29T06:46:08.477Z,5.15
2023-01-29T06:48:35.655Z,4.95
2023-01-29T06:51:07.589Z,4.75
2023-01-29T06:53:35.814Z,5.28
2023-01-29T06:56:02.947Z,4.32
2023-01-29T06:58:29.748Z,4.63
2023-01-29T07:01:04.599Z,4.43
2023-01-29T07:03:31.454Z,4.57
2023-01-29T07:05:58.270Z,4.05
2023-01-29T07:08:25.062Z,5.47
2023-01-29T07:10:51.766Z,4.30
2023-01-29T07:13:18.552Z,5.68
2023-01-29T07:15:45.252Z,4.40
2023-01-29T07:18:12.655Z,5.22
2023-01-29T07:20:40.793Z,5.78
2023-01-29T07:23:11.571Z,4.82
2023-01-29T07:25:39.586Z,4.95
2023-01-29T07:28:12.672Z,6.82
2023-01-29T07:30:39.644Z,5.38
2023-01-29T07:33:08.675Z,5.25
2023-01-29T07:35:40.601Z,5.43
2023-01-29T07:38:09.217Z,5.28
2023-01-29T07:40:36.497Z,6.05
2023-01-29T07:43:06.013Z,6.57
2023-01-29T07:45:35.689Z,6.60
2023-01-29T07:48:04.945Z,7.68
2023-01-29T07:50:33.067Z,9.30
2023-01-29T07:53:00.323Z,9.60
2023-01-29T07:55:27.558Z,7.43
2023-01-29T07:58:04.259Z,8.43
2023-01-29T08:00:32.505Z,9.43
2023-01-29T08:03:07.989Z,9.55
2023-01-29T08:05:34.908Z,9.80
2023-01-29T08:08:07.002Z,9.38
2023-01-29T08:10:39.431Z,11.48
2023-01-29T08:13:07.366Z,9.77
2023-01-29T08:15:36.067Z,9.70
2023-01-29T08:18:05.174Z,10.10
2023-01-29T08:20:32.179Z,9.65
2023-01-29T08:23:08.567Z,9.43
2023-01-29T08:25:44.314Z,7.75
2023-01-29T08:28:12.476Z,6.57
2023-01-29T08:30:39.603Z,7.53
2023-01-29T08:33:06.911Z,6.53
2023-01-29T08:35:48.762Z,6.05
2023-01-29T08:38:15.893Z,6.03
2023-01-29T08:40:42.915Z,6.88
2023-01-29T08:43:11.509Z,8.77
2023-01-29T08:45:43.064Z,12.10
2023-01-29T08:48:10.929Z,13.60
2023-01-29T08:50:38.226Z,12.05
2023-01-29T08:53:10.210Z,12.38
2023-01-29T08:55:40.925Z,8.73
2023-01-29T08:58:08.995Z,5.70
2023-01-29T09:00:36.181Z,5.95
2023-01-29T09:03:03.936Z,5.70
2023-01-29T09:05:34.312Z,5.75
2023-01-29T09:08:01.085Z,5.43
2023-01-29T09:10:28.076Z,7.15
2023-01-29T09:12:54.958Z,7.00
2023-01-29T09:15:22.339Z,6.68
2023-01-29T09:17:51.920Z,8.68
2023-01-29T09:20:22.268Z,7.53
2023-01-29T09:22:50.781Z,7.20
2023-01-29T09:25:18.017Z,6.78
2023-01-29T09:27:45.131Z,5.55
2023-01-29T09:30:12.796Z,7.28
2023-01-29T09:32:55.246Z,7.18
2023-01-29T09:35:23.706Z,6.63
2023-01-29T09:37:51.020Z,6.40
2023-01-29T09:40:45.793Z,5.97
2023-01-29T09:43:20.516Z,6.43
2023-01-29T09:45:57.385Z,6.60
2023-01-29T09:48:28.886Z,6.40
2023-01-29T09:50:58.715Z,8.38
2023-01-29T09:53:30.685Z,6.75
2023-01-29T09:56:04.408Z,6.20
2023-01-29T09:58:36.167Z,6.05
2023-01-29T10:01:14.143Z,5.95
2023-01-29T10:04:08.033Z,6.45
2023-01-29T10:06:47.239Z,5.93
2023-01-29T10:09:42.218Z,5.97
2023-01-29T10:12:52.648Z,6.70
2023-01-29T10:15:45.505Z,6.55
2023-01-29T10:18:48.160Z,6.00
2023-01-29T10:21:48.885Z,5.38
2023-01-29T10:24:33.025Z,5.57
2023-01-29T10:27:01.993Z,4.78
2023-01-29T10:29:31.617Z,4.93
2023-01-29T10:32:05.200Z,5.63
2023-01-29T10:34:46.937Z,4.55
2023-01-29T10:37:21.690Z,5.10
2023-01-29T10:39:48.801Z,5.53
2023-01-29T10:42:21.293Z,5.38
2023-01-29T10:45:07.743Z,5.22
2023-01-29T10:47:34.572Z,4.47
2023-01-29T10:50:19.520Z,4.18
2023-01-29T10:53:00.956Z,4.97
2023-01-29T10:55:43.635Z,4.40
2023-01-29T10:59:05.998Z,4.07
2023-01-29T11:01:32.859Z,4.85
2023-01-29T11:04:06.445Z,5.05
2023-01-29T11:06:37.005Z,5.03
2023-01-29T11:12:15.865Z,5.57
2023-01-29T11:14:48.626Z,5.00
2023-01-29T11:17:20.841Z,5.93
2023-01-29T11:19:51.365Z,5.95
2023-01-29T11:22:23.487Z,4.80
2023-01-29T11:25:11.467Z,5.38
2023-01-29T11:27:52.371Z,4.95
2023-01-29T11:30:42.776Z,5.18
2023-01-29T11:33:12.707Z,5.30
2023-01-29T11:35:39.666Z,6.18
2023-01-29T11:38:14.297Z,5.00
2023-01-29T11:40:41.476Z,5.28
2023-01-29T11:43:27.161Z,6.13
2023-01-29T11:45:57.655Z,5.47
2023-01-29T11:48:59.194Z,8.13
2023-01-29T11:51:34.408Z,6.90
2023-01-29T11:54:03.883Z,8.07
2023-01-29T11:56:45.574Z,7.97
2023-01-29T11:59:39.962Z,5.47
2023-01-29T12:02:34.271Z,5.85
2023-01-29T12:05:15.522Z,5.93
2023-01-29T12:07:44.282Z,5.15
2023-01-29T12:10:33.033Z,6.18
2023-01-29T12:13:07.414Z,5.72
2023-01-29T12:15:34.340Z,4.95
2023-01-29T12:18:22.862Z,5.82
2023-01-29T12:20:56.325Z,6.20
2023-01-29T12:23:48.778Z,6.35
2023-01-29T12:26:24.524Z,6.30
2023-01-29T12:29:17.175Z,5.82
2023-01-29T12:32:19.952Z,5.57
2023-01-29T12:34:59.179Z,5.47
2023-01-29T12:37:52.147Z,6.13
2023-01-29T12:40:21.818Z,5.47
2023-01-29T12:42:52.147Z,6.15
2023-01-29T12:45:23.221Z,5.55
2023-01-29T12:47:58.550Z,6.25
2023-01-29T12:50:32.689Z,5.65
2023-01-29T12:53:13.094Z,5.97
2023-01-29T12:55:45.349Z,6.10
2023-01-29T12:58:20.686Z,5.75
2023-01-29T13:00:54.711Z,5.85
2023-01-29T13:03:42.228Z,5.45
2023-01-29T13:06:20.869Z,6.05
2023-01-29T13:08:54.922Z,5.82
2023-01-29T13:11:31.318Z,5.50
2023-01-29T13:14:24.235Z,6.35
2023-01-29T13:16:55.835Z,5.10
2023-01-29T13:19:34.387Z,4.90
2023-01-29T13:22:05.472Z,4.85
2023-01-29T13:30:02.733Z,3.72
2023-01-29T13:32:31.923Z,4.32
2023-01-29T13:35:04.755Z,4.70
2023-01-29T13:37:38.317Z,5.60
2023-01-29T13:40:07.927Z,4.88
2023-01-29T13:42:45.614Z,4.88
2023-01-29T13:45:21.170Z,6.78
2023-01-29T13:47:50.182Z,8.13
2023-01-29T13:50:42.574Z,7.07
2023-01-29T13:53:21.437Z,4.70
2023-01-29T13:55:48.842Z,4.10
2023-01-29T13:58:44.121Z,4.22
2023-01-29T14:01:11.139Z,4.30
2023-01-29T14:03:56.685Z,4.82
2023-01-29T14:06:41.640Z,4.47
2023-01-29T14:09:33.356Z,5.40
2023-01-29T14:12:00.357Z,4.57
2023-01-29T14:15:16.416Z,9.13
2023-01-29T14:18:06.307Z,7.00
2023-01-29T14:20:45.582Z,6.40
2023-01-29T14:23:41.624Z,5.40
2023-01-29T14:26:34.934Z,4.57
2023-01-29T14:29:04.505Z,4.38
2023-01-29T14:31:35.445Z,4.20
2023-01-29T14:34:04.984Z,4.30
2023-01-29T14:36:43.427Z,4.10
2023-01-29T14:39:30.091Z,4.88
2023-01-29T14:41:58.417Z,4.90
2023-01-29T14:44:48.672Z,4.88
2023-01-29T14:47:20.615Z,4.25
2023-01-29T14:49:56.775Z,4.38
2023-01-29T14:52:44.353Z,4.60
2023-01-29T14:55:42.034Z,4.28
2023-01-29T14:58:21.987Z,4.32
2023-01-29T15:00:53.558Z,4.55
2023-01-29T15:03:30.379Z,4.70
2023-01-29T15:05:59.652Z,5.60
2023-01-29T15:08:37.960Z,5.53
2023-01-29T15:11:31.245Z,4.95
2023-01-29T15:14:24.154Z,5.00
2023-01-29T15:16:54.459Z,5.05
2023-01-29T15:19:50.552Z,4.80
2023-01-29T15:22:22.404Z,5.22
2023-01-29T15:25:16.610Z,4.75
2023-01-29T15:27:46.804Z,4.40
2023-01-29T15:30:29.459Z,4.80
2023-01-29T15:32:56.816Z,5.15
2023-01-29T15:35:37.272Z,5.88
2023-01-29T15:38:14.536Z,4.63
2023-01-29T15:40:41.479Z,4.82
2023-01-29T15:43:23.068Z,4.75
2023-01-29T15:45:52.120Z,4.60
2023-01-29T15:48:23.107Z,6.20
2023-01-29T15:53:21.586Z,5.18
2023-01-29T15:55:48.973Z,5.03
2023-01-29T15:58:22.957Z,4.57
2023-01-29T16:00:55.673Z,5.18
2023-01-29T16:03:24.806Z,5.85
2023-01-29T16:05:52.748Z,5.18
2023-01-29T16:08:22.053Z,6.22
2023-01-29T16:10:54.351Z,5.43
2023-01-29T16:13:24.492Z,5.80
2023-01-29T16:16:01.884Z,6.07
2023-01-29T16:18:35.361Z,6.65
2023-01-29T16:21:14.589Z,6.88
2023-01-29T16:23:48.725Z,6.97
2023-01-29T16:26:19.930Z,6.05
2023-01-29T16:31:26.255Z,7.80
2023-01-29T16:33:53.879Z,7.63
2023-01-29T16:36:23.847Z,8.35
2023-01-29T16:38:54.795Z,8.07
2023-01-29T16:41:21.609Z,8.77
2023-01-29T16:43:58.970Z,10.45
2023-01-29T16:49:25.995Z,12.88
2023-01-29T16:51:54.770Z,13.70
2023-01-29T16:54:24.872Z,17.35
2023-01-29T16:57:00.242Z,14.50
2023-01-29T16:59:35.198Z,13.63
2023-01-29T17:02:03.843Z,12.85
2023-01-29T17:04:30.829Z,13.38
2023-01-29T17:07:01.419Z,12.18
2023-01-29T17:09:35.234Z,11.82
2023-01-29T17:12:06.800Z,13.15
2023-01-29T17:14:34.518Z,14.02
2023-01-29T17:17:37.700Z,14.48
2023-01-29T17:20:16.411Z,12.05
2023-01-29T17:22:44.894Z,11.43
2023-01-29T17:25:15.651Z,12.00
2023-01-29T17:27:51.563Z,13.93
2023-01-29T17:30:22.554Z,15.82
2023-01-29T17:32:49.576Z,18.52
2023-01-29T17:35:20.198Z,16.05
2023-01-29T17:37:47.370Z,17.40
2023-01-29T17:40:33.619Z,16.80
2023-01-29T17:43:00.667Z,28.35
2023-01-29T17:45:27.864Z,26.90
2023-01-29T17:47:54.826Z,25.02
2023-01-29T17:50:26.506Z,22.92
2023-01-29T17:52:54.122Z,22.30
2023-01-29T17:55:21.103Z,19.08
2023-01-29T17:57:48.514Z,17.25
2023-01-29T18:00:20.101Z,21.10
2023-01-29T18:02:47.540Z,23.40
2023-01-29T18:05:15.838Z,18.92
2023-01-29T18:07:45.238Z,19.30
2023-01-29T18:10:16.457Z,15.93
2023-01-29T18:15:11.537Z,13.68
2023-01-29T18:17:38.990Z,15.98
2023-01-29T18:20:32.591Z,15.65
2023-01-29T18:23:04.168Z,16.90
2023-01-29T18:25:31.585Z,19.27
2023-01-29T18:27:58.455Z,19.80
2023-01-29T18:30:27.805Z,17.83
2023-01-29T18:32:54.760Z,15.48
2023-01-29T18:35:22.433Z,18.30
2023-01-29T18:37:49.653Z,15.43
2023-01-29T18:40:17.491Z,20.83
2023-01-29T18:42:45.399Z,21.15
2023-01-29T18:45:13.664Z,20.08
2023-01-29T18:47:41.210Z,20.98
2023-01-29T18:50:08.733Z,20.98
2023-01-29T18:52:35.595Z,24.30
2023-01-29T18:55:02.571Z,24.75
2023-01-29T18:58:25.192Z,20.52
2023-01-29T19:00:16.976Z,23.65
2023-01-29T19:02:45.458Z,19.45
2023-01-29T19:05:12.477Z,20.23
2023-01-29T19:07:39.299Z,20.08
2023-01-29T19:10:09.306Z,16.25
2023-01-29T19:12:38.238Z,16.50
2023-01-29T19:15:05.646Z,16.67
2023-01-29T19:17:33.231Z,16.67
2023-01-29T19:20:04.875Z,19.10
2023-01-29T19:22:32.316Z,21.13
2023-01-29T19:24:59.226Z,23.95
2023-01-29T19:27:30.410Z,26.77
2023-01-29T19:29:58.264Z,23.33
2023-01-29T19:32:29.066Z,21.98
2023-01-29T19:34:58.025Z,20.25
2023-01-29T19:37:25.645Z,24.40
2023-01-29T19:39:53.900Z,24.50
2023-01-29T19:42:21.107Z,22.60
2023-01-29T19:44:48.557Z,19.17
2023-01-29T19:47:15.767Z,19.40
2023-01-29T19:49:42.842Z,18.60
2023-01-29T19:52:15.052Z,19.05
2023-01-29T19:54:51.299Z,15.70
2023-01-29T19:57:18.538Z,15.82
2023-01-29T19:59:47.239Z,20.77
2023-01-29T20:02:14.644Z,21.17
2023-01-29T20:04:41.860Z,25.75
2023-01-29T20:07:09.655Z,24.00
2023-01-29T20:09:36.920Z,20.52
2023-01-29T20:12:04.215Z,14.25
2023-01-29T20:14:31.492Z,14.90
2023-01-29T20:16:58.604Z,32.90
2023-01-29T20:19:25.616Z,32.90
2023-01-29T20:21:52.946Z,32.83
2023-01-29T20:24:20.109Z,27.85
2023-01-29T20:26:47.415Z,23.60
2023-01-29T20:29:15.462Z,21.20
2023-01-29T20:31:42.657Z,23.10
2023-01-29T20:34:10.009Z,24.63
2023-01-29T20:36:37.480Z,25.75
2023-01-29T20:39:04.877Z,29.35
2023-01-29T20:41:32.056Z,25.42
2023-01-29T20:43:59.458Z,20.95
2023-01-29T20:46:27.420Z,21.98
2023-01-29T20:48:55.882Z,19.75
2023-01-29T20:51:23.561Z,20.30
2023-01-29T20:53:50.721Z,33.38
2023-01-29T20:56:18.609Z,25.60
2023-01-29T20:58:59.314Z,21.02
2023-01-29T21:01:26.576Z,19.92
2023-01-29T21:03:53.853Z,20.90
2023-01-29T21:06:21.037Z,18.65
2023-01-29T21:08:48.451Z,15.88
2023-01-29T21:11:15.802Z,22.45
2023-01-29T21:13:44.174Z,18.00
2023-01-29T21:16:11.632Z,17.40
2023-01-29T21:18:38.960Z,14.15
2023-01-29T21:21:06.292Z,15.68
2023-01-29T21:23:33.702Z,18.35
2023-01-29T21:26:05.372Z,16.58
2023-01-29T21:28:32.875Z,16.98
2023-01-29T21:31:10.722Z,16.40
2023-01-29T21:33:38.092Z,17.25
2023-01-29T21:36:05.676Z,20.15
2023-01-29T21:38:33.190Z,20.83
2023-01-29T21:41:02.682Z,22.30
2023-01-29T21:43:29.881Z,17.50
2023-01-29T21:45:58.243Z,16.35
2023-01-29T21:48:25.872Z,17.52
2023-01-29T21:50:53.474Z,14.63
2023-01-29T21:53:20.679Z,15.18
2023-01-29T21:55:47.941Z,13.48
2023-01-29T21:58:14.914Z,14.00
2023-01-29T22:00:41.794Z,12.20
2023-01-29T22:03:08.904Z,14.40
2023-01-29T22:05:35.906Z,14.77
2023-01-29T22:08:04.848Z,11.00
2023-01-29T22:10:34.075Z,10.18
2023-01-29T22:13:02.063Z,7.55
2023-01-29T22:15:29.033Z,9.93
2023-01-29T22:17:55.971Z,9.85
2023-01-29T22:20:29.839Z,9.07
2023-01-29T22:22:59.009Z,8.18
2023-01-29T22:25:26.105Z,7.88
2023-01-29T22:27:53.220Z,10.75
2023-01-29T22:30:21.740Z,12.77
2023-01-29T22:32:48.638Z,13.35
2023-01-29T22:35:15.593Z,18.27
2023-01-29T22:37:42.573Z,15.98
2023-01-29T22:40:09.791Z,16.52
2023-01-29T22:42:36.810Z,14.88
2023-01-29T22:45:03.757Z,15.52
2023-01-29T22:47:33.158Z,14.50
2023-01-29T22:49:59.958Z,14.65
2023-01-29T22:52:27.996Z,14.25
2023-01-29T22:54:54.910Z,12.30
2023-01-29T22:57:21.687Z,10.63
2023-01-29T22:59:48.569Z,9.07
2023-01-29T23:02:15.366Z,8.05
2023-01-29T23:04:42.523Z,6.20
2023-01-29T23:07:09.509Z,6.10
2023-01-29T23:09:36.743Z,7.95
2023-01-29T23:12:03.779Z,7.45
2023-01-29T23:14:30.675Z,8.25
2023-01-29T23:16:57.527Z,9.27
2023-01-29T23:19:24.508Z,8.57
2023-01-29T23:21:51.325Z,7.85
2023-01-29T23:24:18.461Z,7.95
2023-01-29T23:27:03.514Z,7.20
2023-01-29T23:29:30.312Z,6.88
2023-01-29T23:31:57.070Z,7.63
2023-01-29T23:34:23.992Z,8.07
2023-01-29T23:36:50.871Z,7.22
2023-01-29T23:39:18.429Z,7.28
2023-01-29T23:41:45.190Z,6.63
2023-01-29T23:44:12.083Z,5.72
2023-01-29T23:46:38.807Z,6.00
2023-01-29T23:49:06.057Z,7.90
2023-01-29T23:51:33.026Z,6.68
2023-01-29T23:53:59.789Z,9.60
2023-01-29T23:56:26.613Z,10.82
2023-01-29T23:58:57.647Z,8.43
